Belvidere, Illinois
Current Conditions -  °F | °C
As of 2:54 PM on Sunday 23 Nov 2014 (Local Time) from KRFD Reporting Station
Light Rain Light Rain  
Wind Chill: 44°   Ceiling: 700
Heat Index: 49°   Visibility: 2.5mi
Dew Point: 47°   Wind: 13mph
Humidity: 93%   Direction: 130°SE
Pressure: 29.47"   Gusts: NA
Location:  42.26°N, 88.84°W
Report Text: KRFD 232054Z 13011KT 2 1/2SM -RA BR OVC007 09/08 A2947 RMK AO2 SFC VIS 3 SLP979 P0001 60003 T00940083 56041
Loading
Personal Weather Stations






























Interactive Weather Map New forecast layout! Learn more

10-Day Weather Forecast

Advertisements
Track Severe Weather on mobile